Time;durP1;ratioP1;P1;durP2;ratioP2;P2;SDS_P1;SDS_P2;PMS_P1;PMS_P2;Temp;Humidity;BMP_temperature;BMP_pressure;BME280_temperature;BME280_humidity;BME280_pressure;Samples;Min_cycle;Max_cycle;Signal;HPM_P1;HPM_P2
2023/09/27 00:05:02;;;;;;;24.75;17.17;;;15.40;99.90;;;;;;10127242;29;20236;-85
2023/09/27 00:10:09;;;;;;;20.50;14.77;;;15.30;99.90;;;;;;10125887;29;20319;-84
2023/09/27 00:15:12;;;;;;;22.23;15.52;;;15.10;99.90;;;;;;10127724;29;20383;-84
2023/09/27 00:20:19;;;;;;;26.30;17.83;;;15.10;99.90;;;;;;10107464;29;20252;-84
2023/09/27 00:25:22;;;;;;;27.27;18.05;;;14.90;99.90;;;;;;10121677;29;20272;-85
2023/09/27 00:30:25;;;;;;;21.55;14.23;;;14.80;99.90;;;;;;10125324;29;20259;-85
2023/09/27 00:35:28;;;;;;;26.83;16.50;;;14.80;99.90;;;;;;10094423;29;20240;-84
2023/09/27 00:40:31;;;;;;;22.60;16.17;;;14.70;99.90;;;;;;10107269;29;20243;-85
2023/09/27 00:45:34;;;;;;;20.17;14.80;;;14.80;99.90;;;;;;10126734;29;20244;-85
2023/09/27 00:50:36;;;;;;;20.70;15.85;;;14.70;99.90;;;;;;10085301;29;20674;-85
2023/09/27 00:55:39;;;;;;;23.55;15.50;;;14.70;99.90;;;;;;10110256;29;20236;-85
2023/09/27 01:00:42;;;;;;;23.60;16.10;;;14.70;99.90;;;;;;10113988;29;20295;-85
2023/09/27 01:05:46;;;;;;;22.58;16.13;;;14.70;99.90;;;;;;10134892;29;20712;-85
2023/09/27 01:10:49;;;;;;;21.88;15.25;;;14.60;99.90;;;;;;10133492;29;20327;-84
2023/09/27 01:15:53;;;;;;;28.88;17.70;;;14.70;99.90;;;;;;10117132;29;20239;-85
2023/09/27 01:20:56;;;;;;;25.27;17.33;;;14.60;99.90;;;;;;10117834;29;20308;-85
2023/09/27 01:26:00;;;;;;;23.95;17.42;;;14.60;99.90;;;;;;10114773;29;20315;-84
2023/09/27 01:31:03;;;;;;;31.45;19.13;;;14.60;99.90;;;;;;10113576;29;20256;-85
2023/09/27 01:36:07;;;;;;;25.10;16.30;;;14.50;99.90;;;;;;10090729;29;20249;-84
2023/09/27 01:41:11;;;;;;;25.65;18.38;;;14.80;99.90;;;;;;10129462;29;20676;-84
2023/09/27 01:46:13;;;;;;;34.83;20.02;;;14.90;99.90;;;;;;10105053;29;20633;-84
2023/09/27 01:51:16;;;;;;;25.48;16.85;;;14.90;99.90;;;;;;10130579;29;20263;-84
2023/09/27 01:56:20;;;;;;;28.67;19.35;;;15.20;99.90;;;;;;10114550;29;20240;-84
2023/09/27 02:01:23;;;;;;;24.88;15.63;;;15.20;99.90;;;;;;10114872;29;20244;-84
2023/09/27 02:06:26;;;;;;;16.50;11.98;;;15.10;99.90;;;;;;10116784;29;20308;-84
2023/09/27 02:11:28;;;;;;;25.40;17.80;;;15.00;99.90;;;;;;10113507;29;20263;-85
2023/09/27 02:16:33;;;;;;;13.13;9.75;;;15.00;99.90;;;;;;10109859;29;20255;-85
2023/09/27 02:21:35;;;;;;;26.50;18.10;;;14.80;99.90;;;;;;10118223;29;20240;-84
2023/09/27 02:26:38;;;;;;;21.98;14.15;;;14.80;99.90;;;;;;10113671;29;20315;-84
2023/09/27 02:31:41;;;;;;;19.20;10.43;;;14.60;99.90;;;;;;10113133;29;20260;-85
2023/09/27 02:36:45;;;;;;;25.10;17.10;;;14.80;99.90;;;;;;10131735;29;20244;-84
2023/09/27 02:41:48;;;;;;;25.90;17.45;;;14.60;99.90;;;;;;10114590;29;20307;-84
2023/09/27 02:46:52;;;;;;;24.45;16.33;;;14.40;99.90;;;;;;10130284;29;20299;-85
2023/09/27 02:51:55;;;;;;;21.55;14.52;;;14.30;99.90;;;;;;10114130;29;20292;-85
2023/09/27 02:56:57;;;;;;;23.08;15.38;;;14.30;99.90;;;;;;10099138;29;20248;-84
2023/09/27 03:02:00;;;;;;;23.23;16.20;;;14.30;99.90;;;;;;10096466;29;20248;-84
2023/09/27 03:07:05;;;;;;;20.77;14.05;;;14.10;99.90;;;;;;10097987;29;20787;-84
2023/09/27 03:12:08;;;;;;;24.52;16.27;;;14.00;99.90;;;;;;10098536;29;20292;-84
2023/09/27 03:17:11;;;;;;;24.00;15.55;;;13.90;99.90;;;;;;10130589;29;20239;-85
2023/09/27 03:22:14;;;;;;;24.92;15.13;;;13.90;99.90;;;;;;10103141;29;20865;-85
2023/09/27 03:27:18;;;;;;;24.13;15.98;;;13.90;99.90;;;;;;10110124;29;20275;-85
2023/09/27 03:32:22;;;;;;;17.42;12.35;;;13.90;99.90;;;;;;10110451;29;20752;-85
2023/09/27 03:37:25;;;;;;;22.05;15.60;;;13.90;99.90;;;;;;10083651;29;20267;-85
2023/09/27 03:42:27;;;;;;;19.25;13.65;;;14.00;99.90;;;;;;10128792;29;20647;-85
2023/09/27 03:47:30;;;;;;;22.35;16.38;;;14.00;99.90;;;;;;10108795;29;20216;-85
2023/09/27 03:52:33;;;;;;;22.55;16.27;;;14.10;99.90;;;;;;10112710;29;20303;-85
2023/09/27 03:57:36;;;;;;;22.20;15.63;;;13.80;99.90;;;;;;10095258;29;20869;-85
2023/09/27 04:02:38;;;;;;;18.15;13.68;;;13.70;99.90;;;;;;10110930;29;20243;-85
2023/09/27 04:07:41;;;;;;;22.05;12.73;;;13.70;99.90;;;;;;10109958;29;20248;-85
2023/09/27 04:12:44;;;;;;;22.30;15.32;;;13.60;99.90;;;;;;10106319;29;20324;-85
2023/09/27 04:17:47;;;;;;;19.27;13.60;;;13.50;99.90;;;;;;10127975;29;20240;-84
2023/09/27 04:22:50;;;;;;;14.80;11.65;;;13.40;99.90;;;;;;10111169;29;20280;-85
2023/09/27 04:27:53;;;;;;;17.80;11.85;;;13.50;99.90;;;;;;10127555;29;20275;-85
2023/09/27 04:32:55;;;;;;;19.33;14.20;;;13.50;99.90;;;;;;10113796;29;20230;-85
2023/09/27 04:37:58;;;;;;;18.65;14.35;;;13.50;99.90;;;;;;10139709;29;20248;-85
2023/09/27 04:43:00;;;;;;;17.92;13.15;;;13.40;99.90;;;;;;10109057;29;20248;-84
2023/09/27 04:48:04;;;;;;;19.10;13.48;;;13.50;99.90;;;;;;10139631;29;20319;-84
2023/09/27 04:53:06;;;;;;;17.70;13.48;;;13.30;99.90;;;;;;10135129;29;20295;-84
2023/09/27 04:58:09;;;;;;;17.40;12.35;;;13.40;99.90;;;;;;10112948;29;20297;-84
2023/09/27 05:03:13;;;;;;;21.13;13.40;;;13.40;99.90;;;;;;10124931;29;20918;-85
2023/09/27 05:08:15;;;;;;;20.42;14.10;;;13.40;99.90;;;;;;10138231;29;20259;-85
2023/09/27 05:13:21;;;;;;;19.95;14.00;;;13.20;99.90;;;;;;10139659;29;20239;-85
2023/09/27 05:18:24;;;;;;;24.98;15.70;;;13.30;99.90;;;;;;10124560;29;20235;-84
2023/09/27 05:23:26;;;;;;;22.80;14.70;;;13.40;99.90;;;;;;10122664;29;20308;-85
2023/09/27 05:28:32;;;;;;;18.27;14.10;;;13.40;99.90;;;;;;10134631;29;20382;-83
2023/09/27 05:33:34;;;;;;;18.63;12.30;;;13.80;99.90;;;;;;10133291;29;20236;-84
2023/09/27 05:38:40;;;;;;;34.67;16.55;;;14.40;99.90;;;;;;10137462;29;20247;-84
2023/09/27 05:43:43;;;;;;;26.45;16.00;;;14.40;99.90;;;;;;10139365;29;20275;-84
2023/09/27 05:48:46;;;;;;;25.25;15.68;;;14.20;99.90;;;;;;10131398;29;20263;-84
2023/09/27 05:53:52;;;;;;;27.75;14.40;;;14.10;99.90;;;;;;10125647;29;20292;-84
2023/09/27 05:58:54;;;;;;;15.10;10.93;;;14.10;99.90;;;;;;10137563;29;20268;-84
2023/09/27 06:03:57;;;;;;;18.55;13.60;;;14.20;99.90;;;;;;10132020;29;20295;-85
2023/09/27 06:08:59;;;;;;;27.45;17.85;;;14.40;99.90;;;;;;10132493;29;20264;-85
2023/09/27 06:14:02;;;;;;;27.13;15.57;;;14.50;99.90;;;;;;10117320;29;20235;-85
2023/09/27 06:19:05;;;;;;;31.23;19.48;;;14.60;99.90;;;;;;10131823;29;20264;-85
2023/09/27 06:24:08;;;;;;;20.02;12.48;;;14.70;99.90;;;;;;10116317;29;20276;-85
2023/09/27 06:29:12;;;;;;;35.58;21.10;;;15.00;99.90;;;;;;10132861;29;20733;-85
2023/09/27 06:34:18;;;;;;;18.20;12.60;;;15.20;99.90;;;;;;10108182;29;20296;-85
2023/09/27 06:39:23;;;;;;;24.30;16.90;;;15.30;99.90;;;;;;10110485;29;20240;-85
2023/09/27 06:44:26;;;;;;;16.02;11.77;;;15.60;99.90;;;;;;10131503;29;20303;-84
2023/09/27 06:49:30;;;;;;;24.88;14.77;;;15.70;99.90;;;;;;10129299;29;20722;-86
2023/09/27 06:54:33;;;;;;;14.55;10.38;;;16.00;99.90;;;;;;10130385;29;20244;-86
2023/09/27 06:59:36;;;;;;;15.32;10.57;;;16.30;99.90;;;;;;10112250;29;20252;-86
2023/09/27 07:04:42;;;;;;;31.40;20.67;;;16.60;99.90;;;;;;10130570;29;20235;-85
2023/09/27 07:09:45;;;;;;;16.75;12.35;;;16.90;99.90;;;;;;10128745;29;20678;-85
2023/09/27 07:14:47;;;;;;;12.45;9.73;;;17.30;99.90;;;;;;10128595;29;20244;-85
2023/09/27 07:19:51;;;;;;;15.75;12.30;;;17.50;99.90;;;;;;10113865;29;20239;-85
2023/09/27 07:24:57;;;;;;;24.85;16.70;;;17.70;99.90;;;;;;10110498;29;20759;-84
2023/09/27 07:30:00;;;;;;;27.52;18.70;;;18.10;99.90;;;;;;10124681;29;20821;-85
2023/09/27 07:35:07;;;;;;;20.23;15.15;;;18.40;99.90;;;;;;10113743;29;20692;-85
2023/09/27 07:40:12;;;;;;;29.90;18.52;;;18.80;99.90;;;;;;10130124;29;20247;-84
2023/09/27 07:45:21;;;;;;;30.60;21.75;;;19.00;99.90;;;;;;10130188;29;20240;-87
2023/09/27 07:50:31;;;;;;;36.13;22.15;;;19.10;99.90;;;;;;10095018;29;20311;-89
2023/09/27 07:55:43;;;;;;;26.88;19.08;;;19.40;99.90;;;;;;10129206;29;20312;-89
2023/09/27 08:00:46;;;;;;;26.75;16.90;;;19.60;99.90;;;;;;10091025;29;20325;-89
2023/09/27 08:05:49;;;;;;;24.27;15.43;;;19.80;99.90;;;;;;10078513;29;20217;-89
2023/09/27 08:10:52;;;;;;;24.02;16.17;;;20.10;99.90;;;;;;10112240;29;20352;-90
2023/09/27 08:15:55;;;;;;;22.23;14.75;;;20.40;99.90;;;;;;10123773;29;20255;-90
2023/09/27 08:20:58;;;;;;;23.10;15.63;;;20.60;99.90;;;;;;10129848;29;20431;-91
2023/09/27 08:26:01;;;;;;;19.55;13.25;;;20.80;99.90;;;;;;10124809;29;20732;-90
2023/09/27 08:31:04;;;;;;;16.58;12.68;;;21.00;99.90;;;;;;10127206;29;20276;-91
2023/09/27 08:36:08;;;;;;;16.67;13.35;;;21.20;99.90;;;;;;10110638;29;20323;-90
2023/09/27 08:41:13;;;;;;;16.92;12.23;;;21.50;99.90;;;;;;10105842;29;20767;-90
2023/09/27 08:46:17;;;;;;;20.80;14.05;;;21.60;99.90;;;;;;10111026;29;20295;-90
2023/09/27 08:51:20;;;;;;;20.38;14.60;;;21.80;99.90;;;;;;10134377;29;20296;-90
2023/09/27 08:56:24;;;;;;;15.85;11.57;;;22.00;99.90;;;;;;10102147;29;20229;-90
2023/09/27 09:01:28;;;;;;;19.75;14.23;;;22.10;99.90;;;;;;10089570;29;20240;-90
2023/09/27 09:06:31;;;;;;;14.25;10.73;;;22.30;99.90;;;;;;10114536;29;20231;-89
2023/09/27 09:11:34;;;;;;;21.38;13.68;;;22.40;98.80;;;;;;10107857;29;20723;-89
2023/09/27 09:16:39;;;;;;;13.10;10.13;;;22.60;99.00;;;;;;10107861;29;20248;-90
2023/09/27 09:21:43;;;;;;;10.98;8.32;;;22.70;98.40;;;;;;10081825;29;20236;-88
2023/09/27 09:26:46;;;;;;;24.75;15.68;;;22.80;96.80;;;;;;10129459;29;20264;-85
2023/09/27 09:31:50;;;;;;;21.80;12.73;;;23.00;97.50;;;;;;10117754;29;20698;-84
2023/09/27 09:36:53;;;;;;;26.35;12.60;;;23.00;96.80;;;;;;10134098;29;20773;-85
2023/09/27 09:41:59;;;;;;;12.70;11.15;;;23.10;96.60;;;;;;10117059;29;20232;-84
2023/09/27 09:47:12;;;;;;;22.48;12.73;;;23.20;96.40;;;;;;10117802;29;20252;-88
2023/09/27 09:52:18;;;;;;;23.63;12.20;;;23.30;95.40;;;;;;10112488;29;20259;-88
2023/09/27 09:57:23;;;;;;;20.00;11.70;;;23.40;95.10;;;;;;10133234;29;20231;-87
2023/09/27 10:02:53;;;;;;;22.23;11.38;;;23.50;95.40;;;;;;10131720;29;20672;-88
2023/09/27 10:07:56;;;;;;;15.55;10.18;;;23.60;94.90;;;;;;10114403;29;20308;-87
2023/09/27 10:12:59;;;;;;;16.77;9.05;;;23.70;94.30;;;;;;10132018;29;20280;-87
2023/09/27 10:18:27;;;;;;;10.98;7.47;;;23.80;94.40;;;;;;10133372;29;20235;-87
2023/09/27 10:23:45;;;;;;;8.30;7.40;;;23.90;93.70;;;;;;10109689;29;20295;-87
2023/09/27 10:29:03;;;;;;;13.52;9.25;;;23.90;93.10;;;;;;10133821;29;20243;-87
2023/09/27 10:34:38;;;;;;;11.85;8.82;;;24.00;92.90;;;;;;10132161;29;20239;-87
2023/09/27 10:39:41;;;;;;;18.20;9.48;;;24.10;92.40;;;;;;10114327;29;20288;-86
2023/09/27 10:44:44;;;;;;;8.73;7.07;;;24.20;92.10;;;;;;10131102;29;20296;-88
2023/09/27 10:49:48;;;;;;;10.32;7.22;;;24.30;91.90;;;;;;10098508;29;20267;-88
2023/09/27 10:54:51;;;;;;;11.32;7.53;;;24.30;91.50;;;;;;10131456;29;20240;-87
2023/09/27 10:59:54;;;;;;;14.55;9.45;;;24.40;91.50;;;;;;10143094;29;20310;-88
2023/09/27 11:04:57;;;;;;;6.72;5.35;;;24.40;91.20;;;;;;10129751;29;20228;-88
2023/09/27 11:10:01;;;;;;;11.25;7.25;;;24.40;90.60;;;;;;10126193;29;20256;-88
2023/09/27 11:15:04;;;;;;;15.18;9.13;;;24.50;90.30;;;;;;10114641;29;20299;-88
2023/09/27 11:20:11;;;;;;;12.95;8.90;;;24.60;90.50;;;;;;10150777;29;20243;-87
2023/09/27 11:25:34;;;;;;;9.77;7.72;;;24.60;87.10;;;;;;10127841;29;20272;-88
2023/09/27 11:30:37;;;;;;;9.93;5.90;;;24.70;87.50;;;;;;10130521;29;20263;-87
2023/09/27 11:35:48;;;;;;;9.00;7.80;;;24.70;88.10;;;;;;10130345;29;20232;-88
2023/09/27 11:40:51;;;;;;;11.13;7.85;;;24.70;86.10;;;;;;10128574;29;20232;-87
2023/09/27 11:45:53;;;;;;;9.93;7.25;;;24.70;84.20;;;;;;10128912;29;20241;-88
2023/09/27 11:51:01;;;;;;;9.93;6.80;;;24.80;85.20;;;;;;10112538;29;20320;-86
2023/09/27 11:56:05;;;;;;;12.23;6.70;;;24.80;86.00;;;;;;10127724;29;20303;-87
2023/09/27 12:01:07;;;;;;;9.57;7.68;;;24.80;83.40;;;;;;10127043;29;20299;-88
2023/09/27 12:06:10;;;;;;;9.10;7.38;;;24.90;81.10;;;;;;10128342;29;20236;-88
2023/09/27 12:11:13;;;;;;;12.07;7.55;;;24.90;79.70;;;;;;10111227;29;20292;-88
2023/09/27 12:16:17;;;;;;;9.40;7.05;;;25.00;70.70;;;;;;10126654;29;20240;-88
2023/09/27 12:21:21;;;;;;;7.95;7.15;;;25.00;76.90;;;;;;10128500;29;20731;-88
2023/09/27 12:26:23;;;;;;;10.07;7.15;;;25.10;76.10;;;;;;10127912;29;20307;-88
2023/09/27 12:31:26;;;;;;;12.27;7.57;;;25.10;69.70;;;;;;10129891;29;20315;-88
2023/09/27 12:36:29;;;;;;;12.18;7.32;;;25.10;67.40;;;;;;10112764;29;20287;-87
2023/09/27 12:41:32;;;;;;;8.88;7.18;;;25.10;69.40;;;;;;10111846;29;20284;-88
2023/09/27 12:46:34;;;;;;;9.65;7.35;;;25.10;74.70;;;;;;10111539;29;20280;-88
2023/09/27 12:51:38;;;;;;;9.45;7.20;;;25.10;66.40;;;;;;10111762;29;20297;-88
2023/09/27 12:56:50;;;;;;;10.68;7.40;;;25.20;64.40;;;;;;10137137;29;20227;-88
2023/09/27 13:01:53;;;;;;;10.02;8.57;;;25.20;66.60;;;;;;10140259;29;20680;-87
2023/09/27 13:06:56;;;;;;;8.65;7.22;;;25.20;69.50;;;;;;10102224;29;20239;-88
2023/09/27 13:11:58;;;;;;;9.20;7.90;;;25.10;67.20;;;;;;10135345;29;20660;-87
2023/09/27 13:17:03;;;;;;;10.10;7.60;;;25.20;66.30;;;;;;10127194;29;20244;-87
2023/09/27 13:22:07;;;;;;;9.43;8.35;;;25.20;65.60;;;;;;10121865;29;20251;-88
2023/09/27 13:27:10;;;;;;;9.98;8.00;;;25.20;66.90;;;;;;10135528;29;20368;-87
2023/09/27 13:32:13;;;;;;;15.55;10.50;;;25.20;64.60;;;;;;10139206;29;20296;-87
2023/09/27 13:37:19;;;;;;;10.85;7.63;;;25.20;60.90;;;;;;10133556;29;20653;-87
2023/09/27 13:42:22;;;;;;;9.02;7.97;;;25.20;61.60;;;;;;10141259;29;20256;-87
2023/09/27 13:47:25;;;;;;;10.30;9.10;;;25.20;62.00;;;;;;10128728;29;20243;-87
2023/09/27 13:52:27;;;;;;;11.00;6.70;;;25.20;58.20;;;;;;10172326;29;20259;-87
2023/09/27 13:57:31;;;;;;;11.38;8.02;;;25.20;53.50;;;;;;10125057;29;20312;-88
2023/09/27 14:02:37;;;;;;;11.00;9.13;;;25.10;57.70;;;;;;10124859;29;20679;-88
2023/09/27 14:07:43;;;;;;;10.23;8.95;;;25.10;65.50;;;;;;10131371;29;20272;-87
2023/09/27 14:12:46;;;;;;;12.18;9.25;;;25.10;65.10;;;;;;10130553;29;20319;-87
2023/09/27 14:17:48;;;;;;;10.75;7.47;;;25.10;64.20;;;;;;10137354;29;20685;-87
2023/09/27 14:22:52;;;;;;;15.38;7.72;;;25.00;56.40;;;;;;10148804;29;20644;-88
2023/09/27 14:27:54;;;;;;;14.30;7.57;;;25.00;56.40;;;;;;10108374;29;20280;-88
2023/09/27 14:32:57;;;;;;;9.75;8.70;;;25.00;54.20;;;;;;10091479;29;20288;-88
2023/09/27 14:37:59;;;;;;;11.13;9.23;;;25.00;58.70;;;;;;10092372;29;20240;-88
2023/09/27 14:43:02;;;;;;;12.93;7.53;;;25.00;62.80;;;;;;10075933;29;20289;-88
2023/09/27 14:48:07;;;;;;;10.45;9.02;;;24.90;52.20;;;;;;10088996;29;20236;-88
2023/09/27 14:53:10;;;;;;;10.95;7.15;;;24.90;60.80;;;;;;10092712;29;20328;-88
2023/09/27 14:58:14;;;;;;;19.55;9.02;;;24.90;54.30;;;;;;10092188;29;20265;-89
2023/09/27 15:03:17;;;;;;;13.80;7.20;;;24.80;55.30;;;;;;10075463;29;20261;-87
2023/09/27 15:08:19;;;;;;;13.20;7.10;;;24.70;60.50;;;;;;10074874;29;20264;-88
2023/09/27 15:13:22;;;;;;;11.02;6.85;;;24.60;49.90;;;;;;10072465;29;20728;-88
2023/09/27 15:18:25;;;;;;;16.92;8.40;;;24.50;52.40;;;;;;10047048;29;20309;-88
2023/09/27 15:23:28;;;;;;;9.73;8.57;;;24.50;54.20;;;;;;10098919;29;20236;-88
2023/09/27 15:28:30;;;;;;;10.02;7.95;;;24.40;63.40;;;;;;10169249;29;20290;-88
2023/09/27 15:33:33;;;;;;;12.35;7.00;;;24.30;63.70;;;;;;10122498;29;20273;-88
2023/09/27 15:38:35;;;;;;;9.35;7.13;;;24.20;64.30;;;;;;10137629;29;20279;-88
2023/09/27 15:43:38;;;;;;;6.97;6.05;;;24.10;59.80;;;;;;10138721;29;20208;-88
2023/09/27 15:48:43;;;;;;;12.68;7.10;;;23.80;58.80;;;;;;10122220;29;20264;-88
2023/09/27 15:53:46;;;;;;;15.48;7.30;;;23.70;62.70;;;;;;10134055;29;20232;-88
2023/09/27 15:58:48;;;;;;;14.00;6.47;;;23.50;61.20;;;;;;10134343;29;20197;-88
2023/09/27 16:03:51;;;;;;;11.90;7.13;;;23.20;63.50;;;;;;10135188;29;20260;-88
2023/09/27 16:08:56;;;;;;;14.50;6.60;;;22.80;66.80;;;;;;10117232;29;20591;-88
2023/09/27 16:13:59;;;;;;;11.52;5.80;;;22.40;72.10;;;;;;10119091;29;20232;-88
2023/09/27 16:19:02;;;;;;;12.10;6.07;;;22.10;74.30;;;;;;10133748;29;20208;-86
2023/09/27 16:24:05;;;;;;;14.00;6.63;;;21.70;78.00;;;;;;10112671;29;20240;-87
2023/09/27 16:29:08;;;;;;;9.52;6.22;;;21.30;83.40;;;;;;10112781;29;20632;-87
2023/09/27 16:34:13;;;;;;;17.30;8.20;;;20.90;87.90;;;;;;10128956;29;20264;-87
2023/09/27 16:39:16;;;;;;;17.23;6.97;;;20.60;91.40;;;;;;10133781;29;20640;-88
2023/09/27 16:44:18;;;;;;;16.85;7.28;;;20.50;92.20;;;;;;10116540;29;20232;-88
2023/09/27 16:49:21;;;;;;;21.10;7.75;;;20.30;92.20;;;;;;9452504;29;10000782;-86
2023/09/27 16:54:25;;;;;;;26.25;8.82;;;20.20;93.40;;;;;;10108134;29;20315;-87
2023/09/27 16:59:28;;;;;;;20.73;7.75;;;20.00;94.20;;;;;;10125723;29;20296;-88
2023/09/27 17:04:33;;;;;;;18.88;7.90;;;19.80;94.70;;;;;;10124247;29;20257;-87
2023/09/27 17:09:37;;;;;;;24.67;8.63;;;19.60;95.10;;;;;;10125038;29;20270;-87
2023/09/27 17:14:39;;;;;;;18.77;7.20;;;19.40;95.30;;;;;;10105610;29;20307;-87
2023/09/27 17:19:42;;;;;;;19.50;7.35;;;19.20;96.70;;;;;;10124329;29;20240;-87
2023/09/27 17:24:45;;;;;;;10.77;6.65;;;19.10;96.50;;;;;;10124048;29;20671;-87
2023/09/27 17:29:48;;;;;;;12.88;7.63;;;18.90;96.80;;;;;;10107754;29;20235;-87
2023/09/27 17:34:51;;;;;;;18.00;7.57;;;18.80;97.50;;;;;;10106867;29;20248;-87
2023/09/27 17:39:53;;;;;;;17.38;8.30;;;18.70;97.50;;;;;;10085020;29;20240;-87
2023/09/27 17:44:56;;;;;;;23.58;9.88;;;18.40;98.00;;;;;;10099364;29;20638;-87
2023/09/27 17:49:59;;;;;;;21.67;8.68;;;18.30;98.40;;;;;;10124789;29;20248;-87
2023/09/27 17:55:03;;;;;;;12.43;7.75;;;18.00;98.70;;;;;;10130684;29;20423;-87
2023/09/27 18:00:06;;;;;;;38.40;11.50;;;17.90;99.90;;;;;;10112988;29;20243;-87
2023/09/27 18:05:10;;;;;;;39.95;10.48;;;17.90;99.90;;;;;;10128103;29;20245;-87
2023/09/27 18:10:12;;;;;;;38.03;11.63;;;17.60;99.90;;;;;;10117431;29;20240;-87
2023/09/27 18:15:15;;;;;;;48.63;11.07;;;17.40;99.90;;;;;;10131986;29;20266;-86
2023/09/27 18:20:29;;;;;;;30.55;10.98;;;17.30;99.90;;;;;;10130054;29;20232;-87
2023/09/27 18:25:32;;;;;;;38.45;10.60;;;17.10;99.90;;;;;;10117187;29;20259;-87
2023/09/27 18:30:36;;;;;;;25.60;9.75;;;17.00;99.90;;;;;;10141601;29;20241;-88
2023/09/27 18:35:38;;;;;;;34.47;11.82;;;16.90;99.90;;;;;;10092806;29;20264;-88
2023/09/27 18:40:45;;;;;;;28.98;11.05;;;16.70;99.90;;;;;;10102398;29;20239;-87
2023/09/27 18:45:51;;;;;;;26.27;10.15;;;16.60;99.90;;;;;;10161500;29;20240;-88
2023/09/27 18:50:54;;;;;;;29.38;9.15;;;16.70;99.90;;;;;;10125666;29;20790;-87
2023/09/27 18:55:57;;;;;;;19.38;10.23;;;16.60;99.90;;;;;;10128141;29;20323;-87
2023/09/27 19:00:59;;;;;;;23.40;10.65;;;16.50;99.90;;;;;;10107950;29;20246;-87
2023/09/27 19:06:02;;;;;;;11.00;8.20;;;16.50;99.90;;;;;;10100090;29;20256;-87
2023/09/27 19:11:04;;;;;;;13.45;8.63;;;16.50;99.90;;;;;;10113870;29;20276;-86
2023/09/27 19:16:07;;;;;;;25.67;9.32;;;16.60;99.90;;;;;;10135998;29;20247;-87
2023/09/27 19:21:10;;;;;;;17.65;9.60;;;16.60;99.90;;;;;;10136169;29;20286;-87
2023/09/27 19:26:13;;;;;;;8.82;7.38;;;16.60;99.90;;;;;;10124237;29;20272;-86
2023/09/27 19:31:18;;;;;;;18.60;10.15;;;16.40;99.90;;;;;;10106818;29;20315;-87
2023/09/27 19:36:20;;;;;;;14.48;10.32;;;16.10;99.90;;;;;;10128803;29;20232;-87
2023/09/27 19:41:30;;;;;;;22.17;9.32;;;16.20;99.90;;;;;;10121060;29;20684;-87
2023/09/27 19:46:32;;;;;;;8.88;7.13;;;16.20;99.90;;;;;;10124216;29;20310;-87
2023/09/27 19:51:35;;;;;;;23.35;11.45;;;16.30;99.90;;;;;;10115859;29;20781;-87
2023/09/27 19:56:44;;;;;;;21.67;11.75;;;16.20;99.90;;;;;;10124513;29;20228;-87
2023/09/27 20:01:47;;;;;;;20.55;10.65;;;15.80;99.90;;;;;;10119496;29;20652;-87
2023/09/27 20:06:52;;;;;;;15.77;11.32;;;15.70;99.90;;;;;;10110892;29;20228;-87
2023/09/27 20:11:58;;;;;;;13.55;9.85;;;15.80;99.90;;;;;;10128322;29;20252;-87
2023/09/27 20:17:01;;;;;;;16.48;10.65;;;15.50;99.90;;;;;;10137546;29;20239;-86
2023/09/27 20:22:03;;;;;;;15.98;9.77;;;15.40;99.90;;;;;;10140626;29;20771;-87
2023/09/27 20:27:06;;;;;;;13.48;9.82;;;15.50;99.90;;;;;;10126703;29;20319;-90
2023/09/27 20:32:13;;;;;;;19.92;11.60;;;15.50;99.90;;;;;;10110155;29;20248;-89
2023/09/27 20:37:16;;;;;;;19.13;10.73;;;15.30;99.90;;;;;;10108224;29;20231;-89
2023/09/27 20:42:20;;;;;;;9.80;8.00;;;15.20;99.90;;;;;;10126984;29;20300;-89
2023/09/27 20:47:22;;;;;;;13.45;10.13;;;15.20;99.90;;;;;;10125159;29;20315;-89
2023/09/27 20:52:29;;;;;;;23.10;11.85;;;15.80;99.90;;;;;;10128690;29;20252;-88
2023/09/27 20:57:32;;;;;;;17.08;10.80;;;15.60;99.90;;;;;;10118078;29;20287;-88
2023/09/27 21:02:34;;;;;;;11.50;10.13;;;15.60;99.90;;;;;;10127094;29;20299;-88
2023/09/27 21:07:38;;;;;;;13.63;10.52;;;15.50;99.90;;;;;;10110350;29;20277;-88
2023/09/27 21:12:41;;;;;;;13.32;9.07;;;15.50;99.90;;;;;;10125432;29;20307;-88
2023/09/27 21:17:43;;;;;;;9.55;8.43;;;15.50;99.90;;;;;;10129046;29;20711;-88
2023/09/27 21:22:48;;;;;;;16.70;11.07;;;15.70;99.90;;;;;;10118145;29;20240;-88
2023/09/27 21:27:51;;;;;;;19.33;11.20;;;15.70;99.90;;;;;;10109516;29;20263;-89
2023/09/27 21:32:55;;;;;;;12.88;9.35;;;15.50;99.90;;;;;;10132206;29;20288;-88
2023/09/27 21:37:58;;;;;;;17.13;12.15;;;15.30;99.90;;;;;;10134013;29;20288;-88
2023/09/27 21:43:05;;;;;;;16.35;10.75;;;15.20;99.90;;;;;;10117594;29;20240;-88
2023/09/27 21:48:07;;;;;;;11.82;10.55;;;15.10;99.90;;;;;;10126260;29;20247;-88
2023/09/27 21:53:12;;;;;;;12.90;10.10;;;15.10;99.90;;;;;;10131564;29;20292;-88
2023/09/27 21:58:14;;;;;;;21.83;12.85;;;14.90;99.90;;;;;;10132459;29;20236;-88
2023/09/27 22:03:17;;;;;;;20.75;13.00;;;14.80;99.90;;;;;;10125483;29;20623;-88
2023/09/27 22:08:22;;;;;;;19.15;11.82;;;14.90;99.90;;;;;;10148438;29;20232;-88
2023/09/27 22:13:29;;;;;;;16.92;11.18;;;14.80;99.90;;;;;;10133401;29;20248;-87
2023/09/27 22:18:33;;;;;;;20.58;12.48;;;14.80;99.90;;;;;;10132058;29;20765;-87
2023/09/27 22:23:39;;;;;;;14.00;10.85;;;14.70;99.90;;;;;;10120069;29;20264;-89
2023/09/27 22:28:43;;;;;;;17.63;12.13;;;14.60;99.90;;;;;;10114419;29;20322;-87
2023/09/27 22:33:48;;;;;;;15.32;10.90;;;14.70;99.90;;;;;;10132825;29;20280;-87
2023/09/27 22:38:52;;;;;;;13.95;11.57;;;14.70;99.90;;;;;;10132652;29;20231;-88
2023/09/27 22:43:55;;;;;;;12.38;9.85;;;14.90;99.90;;;;;;10131970;29;20704;-88
2023/09/27 22:49:00;;;;;;;17.23;11.75;;;15.40;99.90;;;;;;10132541;29;20698;-87
2023/09/27 22:54:03;;;;;;;24.60;12.50;;;15.30;99.90;;;;;;10132474;29;20256;-87
2023/09/27 22:59:06;;;;;;;19.60;12.45;;;15.20;99.90;;;;;;10131924;29;20295;-87
2023/09/27 23:04:14;;;;;;;17.27;11.60;;;15.20;99.90;;;;;;10114885;29;20272;-88
2023/09/27 23:09:20;;;;;;;14.60;11.07;;;15.10;99.90;;;;;;10130984;29;20236;-87
2023/09/27 23:14:23;;;;;;;19.90;12.10;;;15.20;99.90;;;;;;10130526;29;20255;-88
2023/09/27 23:19:26;;;;;;;19.27;11.68;;;15.00;99.90;;;;;;10130483;29;20229;-89
2023/09/27 23:29:34;;;;;;;15.85;11.90;;;15.20;99.90;;;;;;10130524;29;20332;-87
2023/09/27 23:34:37;;;;;;;9.07;7.10;;;15.30;99.90;;;;;;10130657;29;20268;-87
2023/09/27 23:39:46;;;;;;;14.27;11.38;;;15.30;99.90;;;;;;10129090;29;20287;-87
2023/09/27 23:44:50;;;;;;;19.73;12.63;;;15.20;99.90;;;;;;10114133;29;20259;-88
2023/09/27 23:49:56;;;;;;;18.05;11.57;;;15.10;99.90;;;;;;10129354;29;20243;-88
2023/09/27 23:55:02;;;;;;;14.57;11.95;;;14.70;99.90;;;;;;10130191;29;20260;-88
